Terminal Aerodrome Forecast
Issued by NWS

Home | Current Version | Previous Version | Text Only | Print | Product List | Glossary On
Versions: 1 2 3 4 5 6 7 8 9 10 11 12 13 14 15 16 17 18 19 20 21 22 23 24 25 26 27 28
180
FTUS41 KGYX 262320
TAFHIE
TAF
KHIE 262320Z 2700/2724 26004KT P6SM BKN080
      TEMPO 2702/2705 6SM -SHRA BKN040 OVC060
     FM271200 23004KT P6SM OVC250 PROB30 2715/2721 P6SM TS BKN050CB=

USA.gov is the U.S. government's official web portal to all federal, state and local government web resources and services.